CheckWX is a tool to help pilots better visualize weather data.  It is not intended as a substitute for an official pre-flight weather briefing.

14:14:36 UTC

KGAO METAR
South Lafourche Leonard Miller Jr Airport
Galliano, Louisiana, USA
Current

20 mins ago

KGAO 221355Z AUTO 10005KT 10SM CLR 20/17 A3018 RMK AO2 T01980165
Observed
Apr-22 @ 13:55 UTC
Wind
  • 100° at 5 KTS
Visibility
10 SM
Flight Rules
VFR
Cloud Levels
  • Clear skies
Temperature
20°C / 68°F
Dewpoint
17°C / 63°F
Humidity
83%
Altimeter
30.18" Hg
Pressure
1022.02 hPa
Previous

40 mins ago

KGAO 221335Z AUTO 10005KT 10SM CLR 19/16 A3017 RMK AO2 T01910161
Observed
Apr-22 @ 13:35 UTC
Wind
  • 100° at 5 KTS
Visibility
10 SM
Flight Rules
VFR
Cloud Levels
  • Clear skies
Temperature
19°C / 66°F
Dewpoint
16°C / 61°F
Humidity
83%
Altimeter
30.17" Hg
Pressure
1021.72 hPa
Previous

60 mins ago

KGAO 221315Z AUTO 10004KT 10SM CLR 19/16 A3017 RMK AO2 T01880163
Observed
Apr-22 @ 13:15 UTC
Wind
  • 100° at 4 KTS
Visibility
10 SM
Flight Rules
VFR
Cloud Levels
  • Clear skies
Temperature
19°C / 66°F
Dewpoint
16°C / 61°F
Humidity
83%
Altimeter
30.17" Hg
Pressure
1021.72 hPa